sensor_id;sensor_type;location;lat;lon;timestamp;pressure;altitude;pressure_sealevel;temperature;humidity
65546;BME280;52177;55.968;37.498;2022-10-30T00:00:27;97911.31;;;10.03;91.58
65546;BME280;52177;55.968;37.498;2022-10-30T00:00:58;97897.19;;;10.02;91.69
65546;BME280;52177;55.968;37.498;2022-10-30T00:01:28;97913.16;;;10.02;91.67
65546;BME280;52177;55.968;37.498;2022-10-30T00:01:58;97908.41;;;10.04;91.64
65546;BME280;52177;55.968;37.498;2022-10-30T00:02:28;97905.75;;;10.04;91.46
65546;BME280;52177;55.968;37.498;2022-10-30T00:02:58;97907.59;;;10.04;91.66
65546;BME280;52177;55.968;37.498;2022-10-30T00:03:29;97911.06;;;10.04;91.46
65546;BME280;52177;55.968;37.498;2022-10-30T00:03:59;97907.59;;;10.04;91.42
65546;BME280;52177;55.968;37.498;2022-10-30T00:04:29;97903.06;;;10.04;91.47
65546;BME280;52177;55.968;37.498;2022-10-30T00:05:00;97910.25;;;10.04;91.45
65546;BME280;52177;55.968;37.498;2022-10-30T00:05:30;97897.75;;;10.04;91.43
65546;BME280;52177;55.968;37.498;2022-10-30T00:06:02;97905.75;;;10.04;91.43
65546;BME280;52177;55.968;37.498;2022-10-30T00:06:32;97898.78;;;10.03;91.46
65546;BME280;52177;55.968;37.498;2022-10-30T00:07:03;97898.78;;;10.03;91.38
65546;BME280;52177;55.968;37.498;2022-10-30T00:07:33;97904.72;;;10.05;91.31
65546;BME280;52177;55.968;37.498;2022-10-30T00:08:03;97905.53;;;10.06;91.37
65546;BME280;52177;55.968;37.498;2022-10-30T00:08:34;97902.06;;;10.05;91.28
65546;BME280;52177;55.968;37.498;2022-10-30T00:09:04;97902.06;;;10.05;91.39
65546;BME280;52177;55.968;37.498;2022-10-30T00:09:34;97897.53;;;10.06;91.24
65546;BME280;52177;55.968;37.498;2022-10-30T00:10:04;97895.94;;;10.05;91.26
65546;BME280;52177;55.968;37.498;2022-10-30T00:10:35;97895.09;;;10.04;91.43
65546;BME280;52177;55.968;37.498;2022-10-30T00:11:06;97888.16;;;10.03;91.50
65546;BME280;52177;55.968;37.498;2022-10-30T00:11:36;97889.19;;;10.02;91.59
65546;BME280;52177;55.968;37.498;2022-10-30T00:12:06;97890.81;;;10.03;91.57
65546;BME280;52177;55.968;37.498;2022-10-30T00:12:36;97886.28;;;10.04;91.52
65546;BME280;52177;55.968;37.498;2022-10-30T00:13:07;97888.97;;;10.04;91.50
65546;BME280;52177;55.968;37.498;2022-10-30T00:13:37;97888.97;;;10.04;91.44
65546;BME280;52177;55.968;37.498;2022-10-30T00:14:08;97886.09;;;10.05;91.38
65546;BME280;52177;55.968;37.498;2022-10-30T00:14:38;97887.09;;;10.04;91.34
65546;BME280;52177;55.968;37.498;2022-10-30T00:15:08;97884.44;;;10.04;91.44
65546;BME280;52177;55.968;37.498;2022-10-30T00:15:39;97881.78;;;10.04;91.25
65546;BME280;52177;55.968;37.498;2022-10-30T00:16:15;97880.97;;;10.04;91.38
65546;BME280;52177;55.968;37.498;2022-10-30T00:16:45;97881.78;;;10.04;91.34
65546;BME280;52177;55.968;37.498;2022-10-30T00:17:15;97882.63;;;10.05;91.27
65546;BME280;52177;55.968;37.498;2022-10-30T00:17:45;97881.78;;;10.04;91.21
65546;BME280;52177;55.968;37.498;2022-10-30T00:18:16;97884.44;;;10.04;91.28
65546;BME280;52177;55.968;37.498;2022-10-30T00:18:46;97886.53;;;10.02;91.31
65546;BME280;52177;55.968;37.498;2022-10-30T00:19:16;97883.88;;;10.02;91.23
65546;BME280;52177;55.968;37.498;2022-10-30T00:19:46;97881.22;;;10.02;91.38
65546;BME280;52177;55.968;37.498;2022-10-30T00:20:17;97879.56;;;10.01;91.31
65546;BME280;52177;55.968;37.498;2022-10-30T00:20:47;97885.69;;;10.02;91.29
65546;BME280;52177;55.968;37.498;2022-10-30T00:21:17;97890.22;;;10.01;91.33
65546;BME280;52177;55.968;37.498;2022-10-30T00:21:48;97886.53;;;10.02;91.13
65546;BME280;52177;55.968;37.498;2022-10-30T00:22:18;97879.56;;;10.01;91.31
65546;BME280;52177;55.968;37.498;2022-10-30T00:22:48;97882.22;;;10.01;91.26
65546;BME280;52177;55.968;37.498;2022-10-30T00:23:18;97880.38;;;10.02;91.20
65546;BME280;52177;55.968;37.498;2022-10-30T00:23:50;97885.69;;;10.02;91.28
65546;BME280;52177;55.968;37.498;2022-10-30T00:24:20;97875.88;;;10.02;91.19
65546;BME280;52177;55.968;37.498;2022-10-30T00:24:50;97874.03;;;10.03;91.06
65546;BME280;52177;55.968;37.498;2022-10-30T00:25:21;97876.25;;;10.06;91.03
65546;BME280;52177;55.968;37.498;2022-10-30T00:25:51;97874.63;;;10.05;91.06
65546;BME280;52177;55.968;37.498;2022-10-30T00:26:21;97875.44;;;10.05;91.00
65546;BME280;52177;55.968;37.498;2022-10-30T00:26:52;97872.78;;;10.05;91.03
65546;BME280;52177;55.968;37.498;2022-10-30T00:27:22;97877.28;;;10.05;91.06
65546;BME280;52177;55.968;37.498;2022-10-30T00:27:52;97878.09;;;10.05;90.96
65546;BME280;52177;55.968;37.498;2022-10-30T00:28:22;97873.78;;;10.04;90.97
65546;BME280;52177;55.968;37.498;2022-10-30T00:28:53;97873.78;;;10.04;91.12
65546;BME280;52177;55.968;37.498;2022-10-30T00:29:24;97873.78;;;10.04;91.13
65546;BME280;52177;55.968;37.498;2022-10-30T00:29:55;97874.63;;;10.05;91.05
65546;BME280;52177;55.968;37.498;2022-10-30T00:30:25;97880.75;;;10.05;91.08
65546;BME280;52177;55.968;37.498;2022-10-30T00:30:59;97875.22;;;10.07;91.08
65546;BME280;52177;55.968;37.498;2022-10-30T00:31:30;97876.25;;;10.06;90.98
65546;BME280;52177;55.968;37.498;2022-10-30T00:32:00;97874.41;;;10.06;90.96
65546;BME280;52177;55.968;37.498;2022-10-30T00:32:30;97872.56;;;10.07;90.98
65546;BME280;52177;55.968;37.498;2022-10-30T00:33:00;97878.69;;;10.07;91.01
65546;BME280;52177;55.968;37.498;2022-10-30T00:33:31;97877.91;;;10.07;90.98
65546;BME280;52177;55.968;37.498;2022-10-30T00:34:02;97878.69;;;10.07;91.01
65546;BME280;52177;55.968;37.498;2022-10-30T00:34:32;97876.84;;;10.08;90.93
65546;BME280;52177;55.968;37.498;2022-10-30T00:35:02;97878.47;;;10.09;90.88
65546;BME280;52177;55.968;37.498;2022-10-30T00:35:32;97877.44;;;10.10;90.92
65546;BME280;52177;55.968;37.498;2022-10-30T00:36:03;97875.00;;;10.08;91.01
65546;BME280;52177;55.968;37.498;2022-10-30T00:36:33;97875.81;;;10.09;90.93
65546;BME280;52177;55.968;37.498;2022-10-30T00:37:03;97875.59;;;10.10;90.92
65546;BME280;52177;55.968;37.498;2022-10-30T00:37:34;97872.94;;;10.10;90.75
65546;BME280;52177;55.968;37.498;2022-10-30T00:38:04;97878.06;;;10.12;90.98
65546;BME280;52177;55.968;37.498;2022-10-30T00:38:34;97866.59;;;10.11;90.85
65546;BME280;52177;55.968;37.498;2022-10-30T00:39:04;97879.66;;;10.13;90.81
65546;BME280;52177;55.968;37.498;2022-10-30T00:39:35;97879.66;;;10.13;90.79
65546;BME280;52177;55.968;37.498;2022-10-30T00:40:05;97877.00;;;10.13;90.84
65546;BME280;52177;55.968;37.498;2022-10-30T00:40:36;97873.53;;;10.12;90.82
65546;BME280;52177;55.968;37.498;2022-10-30T00:41:06;97872.47;;;10.13;90.80
65546;BME280;52177;55.968;37.498;2022-10-30T00:41:39;97870.88;;;10.12;90.86
65546;BME280;52177;55.968;37.498;2022-10-30T00:42:11;97874.56;;;10.11;90.92
65546;BME280;52177;55.968;37.498;2022-10-30T00:42:42;97873.53;;;10.12;90.82
65546;BME280;52177;55.968;37.498;2022-10-30T00:44:01;97871.69;;;10.13;90.79
65546;BME280;52177;55.968;37.498;2022-10-30T00:45:16;97875.38;;;10.12;90.79
65546;BME280;52177;55.968;37.498;2022-10-30T00:45:47;97873.53;;;10.12;90.84
65546;BME280;52177;55.968;37.498;2022-10-30T00:46:19;97865.53;;;10.12;90.72
65546;BME280;52177;55.968;37.498;2022-10-30T00:46:52;97870.06;;;10.12;90.72
65546;BME280;52177;55.968;37.498;2022-10-30T00:47:27;97867.41;;;10.12;90.75
65546;BME280;52177;55.968;37.498;2022-10-30T00:48:00;97869.25;;;10.11;90.73
65546;BME280;52177;55.968;37.498;2022-10-30T00:48:32;97868.41;;;10.11;90.69
65546;BME280;52177;55.968;37.498;2022-10-30T00:49:14;97861.25;;;10.11;90.72
65546;BME280;52177;55.968;37.498;2022-10-30T00:49:49;97872.94;;;10.10;90.73
65546;BME280;52177;55.968;37.498;2022-10-30T00:50:24;97859.63;;;10.10;90.73
65546;BME280;52177;55.968;37.498;2022-10-30T00:50:56;97856.16;;;10.10;90.83
65546;BME280;52177;55.968;37.498;2022-10-30T00:51:28;97859.03;;;10.08;90.79
65546;BME280;52177;55.968;37.498;2022-10-30T00:52:00;97859.03;;;10.08;90.89
65546;BME280;52177;55.968;37.498;2022-10-30T00:52:33;97859.03;;;10.08;90.82
65546;BME280;52177;55.968;37.498;2022-10-30T00:53:08;97852.88;;;10.08;90.76
65546;BME280;52177;55.968;37.498;2022-10-30T00:53:40;97855.56;;;10.08;90.86
65546;BME280;52177;55.968;37.498;2022-10-30T00:54:12;97857.41;;;10.07;90.79
65546;BME280;52177;55.968;37.498;2022-10-30T00:54:43;97860.06;;;10.07;90.87
65546;BME280;52177;55.968;37.498;2022-10-30T00:55:18;97853.94;;;10.07;90.88
65546;BME280;52177;55.968;37.498;2022-10-30T00:55:50;97849.41;;;10.07;90.92
65546;BME280;52177;55.968;37.498;2022-10-30T00:56:21;97853.94;;;10.07;90.87
65546;BME280;52177;55.968;37.498;2022-10-30T00:56:52;97851.28;;;10.07;90.86
65546;BME280;52177;55.968;37.498;2022-10-30T00:57:23;97848.38;;;10.08;90.82
65546;BME280;52177;55.968;37.498;2022-10-30T00:57:54;97849.41;;;10.07;90.84
65546;BME280;52177;55.968;37.498;2022-10-30T00:58:30;97852.06;;;10.07;90.74
65546;BME280;52177;55.968;37.498;2022-10-30T00:59:03;97859.03;;;10.08;90.84
65546;BME280;52177;55.968;37.498;2022-10-30T00:59:34;97852.88;;;10.08;90.64
65546;BME280;52177;55.968;37.498;2022-10-30T01:00:05;97849.41;;;10.07;90.80
65546;BME280;52177;55.968;37.498;2022-10-30T01:00:37;97848.81;;;10.05;90.81
65546;BME280;52177;55.968;37.498;2022-10-30T01:01:10;97848.81;;;10.05;90.82
65546;BME280;52177;55.968;37.498;2022-10-30T01:01:44;97840.03;;;10.05;90.90
65546;BME280;52177;55.968;37.498;2022-10-30T01:02:15;97841.84;;;10.04;90.95
65546;BME280;52177;55.968;37.498;2022-10-30T01:02:46;97846.16;;;10.05;90.89
65546;BME280;52177;55.968;37.498;2022-10-30T01:03:16;97848.81;;;10.05;90.74
65546;BME280;52177;55.968;37.498;2022-10-30T01:03:47;97847.78;;;10.06;90.76
65546;BME280;52177;55.968;37.498;2022-10-30T01:04:19;97849.63;;;10.06;90.81
65546;BME280;52177;55.968;37.498;2022-10-30T01:04:49;97844.31;;;10.06;90.83
65546;BME280;52177;55.968;37.498;2022-10-30T01:05:21;97853.69;;;10.08;90.69
65546;BME280;52177;55.968;37.498;2022-10-30T01:05:54;97848.38;;;10.08;90.77
65546;BME280;52177;55.968;37.498;2022-10-30T01:06:26;97851.03;;;10.08;90.68
65546;BME280;52177;55.968;37.498;2022-10-30T01:06:57;97850.81;;;10.10;90.64
65546;BME280;52177;55.968;37.498;2022-10-30T01:07:28;97850.81;;;10.10;90.53
65546;BME280;52177;55.968;37.498;2022-10-30T01:07:59;97847.13;;;10.11;90.57
65546;BME280;52177;55.968;37.498;2022-10-30T01:08:29;97845.06;;;10.13;90.37
65546;BME280;52177;55.968;37.498;2022-10-30T01:09:00;97848.53;;;10.13;90.27
65546;BME280;52177;55.968;37.498;2022-10-30T01:09:31;97842.38;;;10.13;90.32
65546;BME280;52177;55.968;37.498;2022-10-30T01:10:02;97845.06;;;10.13;90.28
65546;BME280;52177;55.968;37.498;2022-10-30T01:10:32;97842.38;;;10.13;90.25
65546;BME280;52177;55.968;37.498;2022-10-30T01:11:02;97838.13;;;10.12;90.25
65546;BME280;52177;55.968;37.498;2022-10-30T01:11:33;97844.25;;;10.12;90.22
65546;BME280;52177;55.968;37.498;2022-10-30T01:12:03;97845.06;;;10.13;90.21
65546;BME280;52177;55.968;37.498;2022-10-30T01:12:34;97839.13;;;10.11;90.26
65546;BME280;52177;55.968;37.498;2022-10-30T01:13:04;97844.25;;;10.12;90.34
65546;BME280;52177;55.968;37.498;2022-10-30T01:13:35;97846.91;;;10.12;90.28
65546;BME280;52177;55.968;37.498;2022-10-30T01:14:06;97843.44;;;10.12;90.32
65546;BME280;52177;55.968;37.498;2022-10-30T01:14:38;97845.28;;;10.11;90.27
65546;BME280;52177;55.968;37.498;2022-10-30T01:15:10;97844.69;;;10.09;90.40
65546;BME280;52177;55.968;37.498;2022-10-30T01:15:46;97833.19;;;10.09;90.35
65546;BME280;52177;55.968;37.498;2022-10-30T01:16:25;97843.84;;;10.09;90.34
65546;BME280;52177;55.968;37.498;2022-10-30T01:21:37;97830.19;;;10.05;90.27
65546;BME280;52177;55.968;37.498;2022-10-30T01:22:58;97834.09;;;10.03;90.36
65546;BME280;52177;55.968;37.498;2022-10-30T01:25:23;97824.47;;;10.02;90.11
65546;BME280;52177;55.968;37.498;2022-10-30T01:35:22;97832.31;;;9.97;90.30
65546;BME280;52177;55.968;37.498;2022-10-30T01:36:01;97831.50;;;9.96;90.29
65546;BME280;52177;55.968;37.498;2022-10-30T01:36:36;97831.28;;;9.98;90.22
65546;BME280;52177;55.968;37.498;2022-10-30T01:37:10;97827.78;;;9.97;90.27
65546;BME280;52177;55.968;37.498;2022-10-30T01:38:35;97827.56;;;9.99;90.13
65546;BME280;52177;55.968;37.498;2022-10-30T01:39:12;97827.78;;;9.97;90.00
65546;BME280;52177;55.968;37.498;2022-10-30T01:39:44;97828.63;;;9.98;89.98
65546;BME280;52177;55.968;37.498;2022-10-30T01:40:15;97833.09;;;9.97;89.98
65546;BME280;52177;55.968;37.498;2022-10-30T01:40:46;97827.78;;;9.97;90.04
65546;BME280;52177;55.968;37.498;2022-10-30T01:41:16;97831.28;;;9.98;89.98
65546;BME280;52177;55.968;37.498;2022-10-30T01:41:47;97827.78;;;9.97;89.98
65546;BME280;52177;55.968;37.498;2022-10-30T01:43:07;97830.44;;;9.97;89.88
65546;BME280;52177;55.968;37.498;2022-10-30T01:43:38;97828.03;;;9.96;89.98
65546;BME280;52177;55.968;37.498;2022-10-30T01:44:13;97824.56;;;9.95;89.94
65546;BME280;52177;55.968;37.498;2022-10-30T01:44:44;97826.16;;;9.96;89.83
65546;BME280;52177;55.968;37.498;2022-10-30T01:45:20;97821.06;;;9.94;90.07
65546;BME280;52177;55.968;37.498;2022-10-30T01:50:04;97828.84;;;9.96;89.59
65546;BME280;52177;55.968;37.498;2022-10-30T01:53:21;97835.25;;;9.88;89.22
65546;BME280;52177;55.968;37.498;2022-10-30T01:57:27;97842.09;;;9.78;89.37
65546;BME280;52177;55.968;37.498;2022-10-30T01:58:33;97844.75;;;9.78;89.36
65546;BME280;52177;55.968;37.498;2022-10-30T01:59:14;97838.41;;;9.79;89.37
65546;BME280;52177;55.968;37.498;2022-10-30T01:59:48;97843.72;;;9.79;89.34
65546;BME280;52177;55.968;37.498;2022-10-30T02:00:21;97842.69;;;9.80;89.34
65546;BME280;52177;55.968;37.498;2022-10-30T02:00:52;97852.28;;;9.81;89.26
65546;BME280;52177;55.968;37.498;2022-10-30T02:01:23;97840.03;;;9.80;89.24
65546;BME280;52177;55.968;37.498;2022-10-30T02:01:55;97844.53;;;9.79;89.21
65546;BME280;52177;55.968;37.498;2022-10-30T02:02:26;97846.38;;;9.79;89.16
65546;BME280;52177;55.968;37.498;2022-10-30T02:02:56;97848.22;;;9.78;89.31
65546;BME280;52177;55.968;37.498;2022-10-30T02:03:27;97849.84;;;9.79;89.19
65546;BME280;52177;55.968;37.498;2022-10-30T02:03:57;97841.06;;;9.79;89.25
65546;BME280;52177;55.968;37.498;2022-10-30T02:04:28;97841.88;;;9.79;89.22
65546;BME280;52177;55.968;37.498;2022-10-30T02:04:58;97852.28;;;9.81;89.19
65546;BME280;52177;55.968;37.498;2022-10-30T02:05:35;97842.47;;;9.81;89.23
65546;BME280;52177;55.968;37.498;2022-10-30T02:06:06;97852.88;;;9.83;89.11
65546;BME280;52177;55.968;37.498;2022-10-30T02:06:36;97845.75;;;9.83;89.11
65546;BME280;52177;55.968;37.498;2022-10-30T02:07:07;97845.13;;;9.81;89.14
65546;BME280;52177;55.968;37.498;2022-10-30T02:07:38;97848.59;;;9.82;89.07
65546;BME280;52177;55.968;37.498;2022-10-30T02:08:09;97850.66;;;9.80;89.16
65546;BME280;52177;55.968;37.498;2022-10-30T02:08:39;97851.28;;;9.82;89.11
65546;BME280;52177;55.968;37.498;2022-10-30T02:09:09;97853.13;;;9.81;89.20
65546;BME280;52177;55.968;37.498;2022-10-30T02:09:39;97846.97;;;9.81;89.10
65546;BME280;52177;55.968;37.498;2022-10-30T02:10:10;97848.41;;;9.83;89.06
65546;BME280;52177;55.968;37.498;2022-10-30T02:10:41;97851.88;;;9.84;89.03
65546;BME280;52177;55.968;37.498;2022-10-30T02:11:12;97851.06;;;9.83;89.11
65546;BME280;52177;55.968;37.498;2022-10-30T02:11:43;97854.28;;;9.85;89.05
65546;BME280;52177;55.968;37.498;2022-10-30T02:12:14;97855.13;;;9.86;88.96
65546;BME280;52177;55.968;37.498;2022-10-30T02:12:45;97856.53;;;9.88;88.87
65546;BME280;52177;55.968;37.498;2022-10-30T02:13:16;97852.03;;;9.89;88.83
65546;BME280;52177;55.968;37.498;2022-10-30T02:13:46;97852.03;;;9.89;88.70
65546;BME280;52177;55.968;37.498;2022-10-30T02:14:18;97857.34;;;9.89;88.63
65546;BME280;52177;55.968;37.498;2022-10-30T02:14:51;97853.03;;;9.88;88.57
65546;BME280;52177;55.968;37.498;2022-10-30T02:15:22;97855.50;;;9.89;88.71
65546;BME280;52177;55.968;37.498;2022-10-30T02:15:53;97855.50;;;9.89;88.58
65546;BME280;52177;55.968;37.498;2022-10-30T02:16:23;97852.22;;;9.87;88.43
65546;BME280;52177;55.968;37.498;2022-10-30T02:16:54;97850.19;;;9.89;88.40
65546;BME280;52177;55.968;37.498;2022-10-30T02:17:26;97853.88;;;9.88;88.18
65546;BME280;52177;55.968;37.498;2022-10-30T02:17:57;97854.47;;;9.90;88.14
65546;BME280;52177;55.968;37.498;2022-10-30T02:18:27;97848.31;;;9.90;87.88
65546;BME280;52177;55.968;37.498;2022-10-30T02:18:58;97848.56;;;9.88;87.73
65546;BME280;52177;55.968;37.498;2022-10-30T02:19:30;97849.38;;;9.89;87.63
65546;BME280;52177;55.968;37.498;2022-10-30T02:20:00;97847.31;;;9.91;87.72
65546;BME280;52177;55.968;37.498;2022-10-30T02:20:31;97846.25;;;9.92;87.25
65546;BME280;52177;55.968;37.498;2022-10-30T02:21:01;97850.56;;;9.93;86.94
65546;BME280;52177;55.968;37.498;2022-10-30T02:21:31;97843.19;;;9.95;86.76
65546;BME280;52177;55.968;37.498;2022-10-30T02:22:02;97847.66;;;9.94;86.63
65546;BME280;52177;55.968;37.498;2022-10-30T02:22:32;97848.50;;;9.95;86.59
65546;BME280;52177;55.968;37.498;2022-10-30T02:23:02;97852.78;;;9.96;86.53
65546;BME280;52177;55.968;37.498;2022-10-30T02:23:33;97852.56;;;9.98;86.43
65546;BME280;52177;55.968;37.498;2022-10-30T02:24:03;97849.06;;;9.97;86.16
65546;BME280;52177;55.968;37.498;2022-10-30T02:24:34;97848.06;;;9.98;86.06
65546;BME280;52177;55.968;37.498;2022-10-30T02:25:04;97859.31;;;10.00;85.84
65546;BME280;52177;55.968;37.498;2022-10-30T02:25:34;97846.00;;;10.00;85.77
65546;BME280;52177;55.968;37.498;2022-10-30T02:26:05;97853.75;;;10.02;85.65
65546;BME280;52177;55.968;37.498;2022-10-30T02:26:35;97852.13;;;10.01;85.55
65546;BME280;52177;55.968;37.498;2022-10-30T02:27:05;97851.31;;;10.00;85.50
65546;BME280;52177;55.968;37.498;2022-10-30T02:27:35;97849.47;;;10.01;85.60
65546;BME280;52177;55.968;37.498;2022-10-30T02:28:06;97846.22;;;9.99;85.44
65546;BME280;52177;55.968;37.498;2022-10-30T02:28:36;97851.75;;;9.97;85.51
65546;BME280;52177;55.968;37.498;2022-10-30T02:29:06;97853.38;;;9.98;85.56
65546;BME280;52177;55.968;37.498;2022-10-30T02:29:36;97848.88;;;9.99;85.61
65546;BME280;52177;55.968;37.498;2022-10-30T02:30:07;97849.69;;;9.99;85.61
65546;BME280;52177;55.968;37.498;2022-10-30T02:30:37;97851.31;;;10.00;85.71
65546;BME280;52177;55.968;37.498;2022-10-30T02:31:08;97842.53;;;10.00;85.72
65546;BME280;52177;55.968;37.498;2022-10-30T02:31:38;97844.34;;;9.99;85.87
65546;BME280;52177;55.968;37.498;2022-10-30T02:32:08;97838.81;;;10.01;85.89
65546;BME280;52177;55.968;37.498;2022-10-30T02:32:39;97852.13;;;10.01;85.98
65546;BME280;52177;55.968;37.498;2022-10-30T02:33:09;97843.09;;;10.02;86.00
65546;BME280;52177;55.968;37.498;2022-10-30T02:33:43;97846.81;;;10.01;85.79
65546;BME280;52177;55.968;37.498;2022-10-30T02:34:13;97841.47;;;10.01;85.87
65546;BME280;52177;55.968;37.498;2022-10-30T02:34:43;97840.69;;;10.00;85.91
65546;BME280;52177;55.968;37.498;2022-10-30T02:35:14;97842.53;;;10.00;85.87
65546;BME280;52177;55.968;37.498;2022-10-30T02:35:44;97843.34;;;10.00;85.91
65546;BME280;52177;55.968;37.498;2022-10-30T02:36:14;97836.16;;;10.01;85.87
65546;BME280;52177;55.968;37.498;2022-10-30T02:36:44;97838.44;;;9.97;85.56
65546;BME280;52177;55.968;37.498;2022-10-30T02:37:14;97838.44;;;9.97;85.68
65546;BME280;52177;55.968;37.498;2022-10-30T02:37:46;97834.97;;;9.97;85.57
65546;BME280;52177;55.968;37.498;2022-10-30T02:38:16;97835.78;;;9.97;85.46
65546;BME280;52177;55.968;37.498;2022-10-30T02:38:48;97834.97;;;9.97;85.21
65546;BME280;52177;55.968;37.498;2022-10-30T02:39:18;97836.81;;;9.96;85.26
65546;BME280;52177;55.968;37.498;2022-10-30T02:39:50;97836.59;;;9.98;85.23
65546;BME280;52177;55.968;37.498;2022-10-30T02:40:20;97844.34;;;9.99;85.19
65546;BME280;52177;55.968;37.498;2022-10-30T02:40:50;97844.34;;;9.99;85.26
65546;BME280;52177;55.968;37.498;2022-10-30T02:41:21;97840.22;;;10.03;85.70
65546;BME280;52177;55.968;37.498;2022-10-30T02:41:51;97837.56;;;10.03;85.58
65546;BME280;52177;55.968;37.498;2022-10-30T02:42:22;97838.38;;;10.04;85.39
65546;BME280;52177;55.968;37.498;2022-10-30T02:42:53;97842.91;;;10.03;85.16
65546;BME280;52177;55.968;37.498;2022-10-30T02:43:23;97830.63;;;10.02;85.19
65546;BME280;52177;55.968;37.498;2022-10-30T02:43:54;97837.56;;;10.03;85.12
65546;BME280;52177;55.968;37.498;2022-10-30T02:44:24;97833.84;;;10.04;85.05
65546;BME280;52177;55.968;37.498;2022-10-30T02:44:54;97838.63;;;10.02;84.96
65546;BME280;52177;55.968;37.498;2022-10-30T02:45:24;97846.59;;;10.02;84.96
65546;BME280;52177;55.968;37.498;2022-10-30T02:45:54;97838.22;;;9.99;84.83
65546;BME280;52177;55.968;37.498;2022-10-30T02:46:25;97837.41;;;9.98;84.64
65546;BME280;52177;55.968;37.498;2022-10-30T02:46:55;97840.69;;;10.00;84.72
65546;BME280;52177;55.968;37.498;2022-10-30T02:47:27;97844.94;;;10.01;84.68
65546;BME280;52177;55.968;37.498;2022-10-30T02:47:58;97834.31;;;10.01;84.76
65546;BME280;52177;55.968;37.498;2022-10-30T02:48:29;97835.34;;;10.00;84.44
65546;BME280;52177;55.968;37.498;2022-10-30T02:48:59;97835.50;;;10.05;84.52
65546;BME280;52177;55.968;37.498;2022-10-30T02:49:29;97834.91;;;10.03;84.16
65546;BME280;52177;55.968;37.498;2022-10-30T02:50:00;97832.44;;;10.02;83.97
65546;BME280;52177;55.968;37.498;2022-10-30T02:50:30;97834.91;;;10.03;84.11
65546;BME280;52177;55.968;37.498;2022-10-30T02:51:00;97842.09;;;10.03;83.74
65546;BME280;52177;55.968;37.498;2022-10-30T02:51:31;97834.31;;;10.01;83.74
65546;BME280;52177;55.968;37.498;2022-10-30T02:52:01;97830.63;;;10.02;83.93
65546;BME280;52177;55.968;37.498;2022-10-30T02:52:31;97834.09;;;10.03;83.82
65546;BME280;52177;55.968;37.498;2022-10-30T02:53:02;97835.94;;;10.02;83.97
65546;BME280;52177;55.968;37.498;2022-10-30T02:53:32;97827.13;;;10.02;83.83
65546;BME280;52177;55.968;37.498;2022-10-30T02:54:03;97827.97;;;10.02;83.90
65546;BME280;52177;55.968;37.498;2022-10-30T02:54:33;97818.34;;;10.01;83.84
65546;BME280;52177;55.968;37.498;2022-10-30T02:55:04;97823.66;;;10.01;83.62
65546;BME280;52177;55.968;37.498;2022-10-30T02:55:34;97828.97;;;10.01;83.59
65546;BME280;52177;55.968;37.498;2022-10-30T02:56:05;97820.19;;;10.01;83.42
65546;BME280;52177;55.968;37.498;2022-10-30T02:56:36;97824.72;;;10.00;83.43
65546;BME280;52177;55.968;37.498;2022-10-30T02:57:09;97824.91;;;9.99;83.40
65546;BME280;52177;55.968;37.498;2022-10-30T02:57:39;97813.47;;;9.98;83.28
65546;BME280;52177;55.968;37.498;2022-10-30T02:58:09;97820.63;;;9.98;83.23
65546;BME280;52177;55.968;37.498;2022-10-30T02:58:40;97823.28;;;9.98;83.19
65546;BME280;52177;55.968;37.498;2022-10-30T02:59:10;97805.09;;;9.94;82.96
65546;BME280;52177;55.968;37.498;2022-10-30T02:59:41;97816.97;;;9.92;82.68
65546;BME280;52177;55.968;37.498;2022-10-30T03:00:11;97816.97;;;9.92;82.93
65546;BME280;52177;55.968;37.498;2022-10-30T03:00:42;97818.84;;;9.91;82.96
65546;BME280;52177;55.968;37.498;2022-10-30T03:01:16;97819.66;;;9.92;82.91
65546;BME280;52177;55.968;37.498;2022-10-30T03:01:47;97821.50;;;9.91;83.01
65546;BME280;52177;55.968;37.498;2022-10-30T03:02:17;97821.50;;;9.91;82.98
65546;BME280;52177;55.968;37.498;2022-10-30T03:02:47;97818.03;;;9.91;82.94
65546;BME280;52177;55.968;37.498;2022-10-30T03:03:18;97815.56;;;9.89;82.76
65546;BME280;52177;55.968;37.498;2022-10-30T03:03:48;97819.28;;;9.88;82.89
65546;BME280;52177;55.968;37.498;2022-10-30T03:04:18;97822.16;;;9.87;82.90
65546;BME280;52177;55.968;37.498;2022-10-30T03:04:48;97817.03;;;9.85;82.92
65546;BME280;52177;55.968;37.498;2022-10-30T03:05:19;97826.88;;;9.85;82.84
65546;BME280;52177;55.968;37.498;2022-10-30T03:05:49;97826.72;;;9.80;82.58
65546;BME280;52177;55.968;37.498;2022-10-30T03:06:19;97812.59;;;9.79;82.53
65546;BME280;52177;55.968;37.498;2022-10-30T03:06:50;97821.59;;;9.78;82.59
65546;BME280;52177;55.968;37.498;2022-10-30T03:07:20;97814.88;;;9.76;82.51
65546;BME280;52177;55.968;37.498;2022-10-30T03:07:50;97812.81;;;9.78;82.59
65546;BME280;52177;55.968;37.498;2022-10-30T03:08:20;97818.34;;;9.76;82.40
65546;BME280;52177;55.968;37.498;2022-10-30T03:08:51;97816.28;;;9.78;82.72
65546;BME280;52177;55.968;37.498;2022-10-30T03:09:21;97822.66;;;9.77;82.68
65546;BME280;52177;55.968;37.498;2022-10-30T03:09:51;97815.91;;;9.75;82.31
65546;BME280;52177;55.968;37.498;2022-10-30T03:10:23;97805.47;;;9.73;82.25
65546;BME280;52177;55.968;37.498;2022-10-30T03:10:58;97816.34;;;9.71;82.22
65546;BME280;52177;55.968;37.498;2022-10-30T03:11:28;97824.75;;;9.68;81.61
65546;BME280;52177;55.968;37.498;2022-10-30T03:11:58;97817.22;;;9.65;81.31
65546;BME280;52177;55.968;37.498;2022-10-30T03:12:28;97813.75;;;9.65;81.46
65546;BME280;52177;55.968;37.498;2022-10-30T03:12:59;97812.72;;;9.66;81.65
65546;BME280;52177;55.968;37.498;2022-10-30T03:13:30;97816.16;;;9.66;81.70
65546;BME280;52177;55.968;37.498;2022-10-30T03:14:00;97810.25;;;9.64;81.41
65546;BME280;52177;55.968;37.498;2022-10-30T03:14:30;97816.41;;;9.65;81.27
65546;BME280;52177;55.968;37.498;2022-10-30T03:15:01;97818.63;;;9.68;81.62